createdAt,value
2023-05-01T00:02:08.299Z,36.29
2023-05-01T00:04:39.825Z,36.12
2023-05-01T00:07:10.493Z,36.25
2023-05-01T00:09:41.076Z,36.05
2023-05-01T00:12:11.346Z,36.42
2023-05-01T00:14:42.245Z,36.30
2023-05-01T00:17:12.659Z,36.42
2023-05-01T00:22:13.670Z,36.18
2023-05-01T00:24:43.873Z,36.69
2023-05-01T00:27:14.465Z,36.57
2023-05-01T00:29:44.481Z,36.61
2023-05-01T00:32:15.730Z,36.48
2023-05-01T00:34:46.601Z,36.57
2023-05-01T00:37:18.979Z,36.64
2023-05-01T00:39:49.304Z,36.43
2023-05-01T00:42:19.732Z,36.46
2023-05-01T00:44:49.332Z,36.41
2023-05-01T00:47:20.312Z,36.17
2023-05-01T00:49:52.905Z,36.79
2023-05-01T00:52:27.432Z,36.63
2023-05-01T00:54:58.864Z,36.75
2023-05-01T00:57:29.832Z,36.40
2023-05-01T01:00:00.696Z,36.96
2023-05-01T01:02:31.138Z,36.57
2023-05-01T01:05:00.861Z,36.70
2023-05-01T01:07:50.888Z,36.90
2023-05-01T01:10:32.782Z,36.73
2023-05-01T01:13:14.037Z,36.69
2023-05-01T01:15:53.120Z,36.67
2023-05-01T01:18:32.592Z,36.61
2023-05-01T01:21:14.748Z,36.96
2023-05-01T01:24:59.928Z,37.09
2023-05-01T01:28:26.599Z,36.82
2023-05-01T01:31:19.828Z,36.81
2023-05-01T01:34:06.261Z,36.97
2023-05-01T01:36:46.600Z,37.01
2023-05-01T01:39:40.058Z,36.89
2023-05-01T01:42:16.032Z,36.90
2023-05-01T01:44:53.329Z,37.02
2023-05-01T01:47:29.662Z,37.09
2023-05-01T01:50:07.900Z,36.74
2023-05-01T01:52:41.140Z,37.16
2023-05-01T01:55:15.673Z,36.73
2023-05-01T01:57:49.432Z,36.83
2023-05-01T02:00:21.566Z,37.02
2023-05-01T02:02:53.793Z,36.89
2023-05-01T02:05:28.926Z,37.18
2023-05-01T02:08:01.635Z,37.36
2023-05-01T02:10:33.463Z,37.24
2023-05-01T02:13:05.565Z,36.87
2023-05-01T02:15:40.769Z,37.39
2023-05-01T02:18:12.428Z,37.05
2023-05-01T02:20:47.055Z,37.22
2023-05-01T02:23:18.221Z,37.39
2023-05-01T02:25:52.679Z,37.06
2023-05-01T02:28:27.057Z,37.17
2023-05-01T02:30:57.884Z,37.27
2023-05-01T02:33:28.637Z,37.30
2023-05-01T02:36:00.427Z,37.29
2023-05-01T02:38:31.865Z,37.24
2023-05-01T02:41:04.716Z,37.39
2023-05-01T02:43:37.677Z,37.29
2023-05-01T02:46:10.915Z,36.95
2023-05-01T02:48:44.246Z,37.03
2023-05-01T02:51:17.174Z,37.21
2023-05-01T02:53:48.335Z,37.47
2023-05-01T02:56:18.692Z,37.02
2023-05-01T02:58:50.636Z,37.23
2023-05-01T03:01:21.187Z,37.31
2023-05-01T03:03:52.214Z,37.66
2023-05-01T03:06:24.050Z,37.06
2023-05-01T03:08:54.367Z,37.52
2023-05-01T03:11:24.736Z,37.36
2023-05-01T03:13:54.972Z,37.42
2023-05-01T03:16:24.938Z,37.53
2023-05-01T03:18:56.449Z,37.38
2023-05-01T03:21:28.783Z,37.13
2023-05-01T03:23:59.240Z,37.25
2023-05-01T03:26:29.516Z,37.82
2023-05-01T03:28:59.911Z,37.63
2023-05-01T03:31:29.824Z,37.73
2023-05-01T03:34:00.298Z,37.62
2023-05-01T03:36:34.277Z,37.30
2023-05-01T03:39:05.388Z,37.67
2023-05-01T03:41:35.696Z,37.66
2023-05-01T03:44:05.972Z,37.33
2023-05-01T03:46:36.207Z,37.28
2023-05-01T03:49:06.937Z,37.49
2023-05-01T03:51:38.682Z,37.78
2023-05-01T03:54:09.171Z,37.81
2023-05-01T03:56:39.561Z,37.97
2023-05-01T03:59:09.881Z,37.75
2023-05-01T04:01:40.868Z,37.59
2023-05-01T04:04:11.227Z,37.49
2023-05-01T04:06:43.564Z,37.92
2023-05-01T04:09:14.244Z,37.82
2023-05-01T04:11:44.701Z,37.52
2023-05-01T04:14:14.995Z,37.63
2023-05-01T04:16:45.409Z,37.96
2023-05-01T04:19:15.481Z,37.74
2023-05-01T04:21:47.828Z,37.77
2023-05-01T04:24:18.865Z,37.82
2023-05-01T04:26:49.451Z,37.69
2023-05-01T04:29:19.720Z,38.04
2023-05-01T04:31:49.808Z,38.31
2023-05-01T04:34:20.041Z,38.13
2023-05-01T04:36:52.266Z,37.98
2023-05-01T04:39:22.410Z,38.27
2023-05-01T04:41:53.072Z,37.98
2023-05-01T04:44:22.889Z,37.94
2023-05-01T04:46:53.457Z,38.33
2023-05-01T04:49:25.510Z,38.02
2023-05-01T04:51:57.841Z,38.48
2023-05-01T04:54:28.591Z,38.11
2023-05-01T04:56:58.989Z,38.05
2023-05-01T04:59:29.429Z,38.37
2023-05-01T05:02:00.286Z,38.27
2023-05-01T05:04:30.464Z,38.10
2023-05-01T05:07:02.528Z,38.13
2023-05-01T05:09:32.765Z,38.11
2023-05-01T05:12:04.356Z,38.28
2023-05-01T05:14:35.028Z,38.25
2023-05-01T05:17:05.447Z,38.52
2023-05-01T05:19:35.390Z,38.34
2023-05-01T05:22:08.522Z,38.53
2023-05-01T05:24:39.554Z,38.26
2023-05-01T05:27:09.972Z,38.52
2023-05-01T05:29:40.526Z,38.37
2023-05-01T05:32:12.111Z,38.26
2023-05-01T05:34:42.217Z,38.19
2023-05-01T05:37:14.036Z,38.58
2023-05-01T05:39:44.475Z,38.34
2023-05-01T05:42:14.187Z,38.38
2023-05-01T05:44:43.872Z,38.15
2023-05-01T05:47:14.072Z,38.02
2023-05-01T05:49:44.137Z,38.12
2023-05-01T05:52:16.168Z,38.08
2023-05-01T05:54:45.893Z,38.28
2023-05-01T05:57:15.796Z,38.19
2023-05-01T05:59:46.655Z,38.16
2023-05-01T06:02:17.212Z,38.15
2023-05-01T06:04:47.550Z,38.10
2023-05-01T06:07:18.805Z,38.31
2023-05-01T06:09:49.267Z,38.14
2023-05-01T06:12:20.336Z,38.24
2023-05-01T06:14:51.033Z,37.99
2023-05-01T06:17:20.731Z,37.98
2023-05-01T06:19:52.886Z,37.89
2023-05-01T06:22:24.851Z,37.90
2023-05-01T06:24:56.104Z,37.65
2023-05-01T06:27:26.422Z,37.84
2023-05-01T06:29:56.843Z,37.82
2023-05-01T06:32:27.250Z,37.56
2023-05-01T06:34:57.633Z,37.70
2023-05-01T06:37:30.118Z,37.83
2023-05-01T06:40:00.668Z,37.69
2023-05-01T06:42:30.479Z,37.58
2023-05-01T06:45:00.886Z,37.48
2023-05-01T06:47:30.810Z,37.66
2023-05-01T06:50:02.906Z,37.73
2023-05-01T06:52:35.567Z,37.79
2023-05-01T06:55:05.636Z,37.79
2023-05-01T06:57:35.834Z,37.77
2023-05-01T07:00:07.129Z,37.50
2023-05-01T07:02:38.471Z,37.75
2023-05-01T07:05:09.270Z,37.57
2023-05-01T07:07:47.336Z,37.43
2023-05-01T07:10:20.566Z,37.29
2023-05-01T07:12:51.232Z,37.33
2023-05-01T07:15:21.155Z,37.08
2023-05-01T07:17:52.874Z,37.33
2023-05-01T07:20:23.618Z,37.26
2023-05-01T07:22:55.788Z,37.30
2023-05-01T07:25:26.349Z,37.21
2023-05-01T07:27:57.092Z,37.11
2023-05-01T07:30:27.976Z,37.25
2023-05-01T07:32:58.898Z,37.06
2023-05-01T07:35:29.075Z,36.77
2023-05-01T07:38:00.965Z,36.83
2023-05-01T07:40:31.649Z,36.90
2023-05-01T07:43:02.075Z,36.67
2023-05-01T07:45:32.550Z,36.78
2023-05-01T07:48:03.397Z,37.00
2023-05-01T07:50:33.949Z,36.85
2023-05-01T07:53:06.655Z,36.87
2023-05-01T07:55:36.416Z,36.86
2023-05-01T07:58:07.330Z,37.16
2023-05-01T08:00:38.458Z,36.60
2023-05-01T08:03:09.317Z,36.82
2023-05-01T08:05:42.649Z,36.92
2023-05-01T08:08:20.947Z,36.82
2023-05-01T08:10:52.230Z,36.84
2023-05-01T08:13:22.569Z,36.84
2023-05-01T08:15:53.022Z,36.51
2023-05-01T08:18:23.305Z,36.62
2023-05-01T08:20:53.539Z,36.52
2023-05-01T08:23:25.734Z,36.26
2023-05-01T08:25:56.495Z,36.52
2023-05-01T08:28:26.875Z,36.43
2023-05-01T08:30:57.234Z,36.52
2023-05-01T08:33:27.640Z,36.46
2023-05-01T08:35:57.429Z,36.34
2023-05-01T08:38:29.793Z,36.50
2023-05-01T08:41:02.108Z,36.52
2023-05-01T08:43:34.851Z,36.38
2023-05-01T08:46:10.970Z,36.44
2023-05-01T08:48:44.822Z,35.97
2023-05-01T08:51:21.332Z,36.14
2023-05-01T08:53:56.263Z,35.95
2023-05-01T08:56:27.925Z,36.12
2023-05-01T08:59:00.731Z,36.31
2023-05-01T09:01:33.118Z,36.23
2023-05-01T09:04:07.290Z,36.10
2023-05-01T09:06:37.750Z,36.08
2023-05-01T09:09:09.970Z,36.29
2023-05-01T09:11:40.588Z,36.19
2023-05-01T09:14:11.023Z,35.87
2023-05-01T09:16:40.988Z,36.17
2023-05-01T09:19:12.599Z,36.06
2023-05-01T09:21:43.027Z,35.57
2023-05-01T09:24:15.442Z,35.72
2023-05-01T09:26:45.531Z,35.89
2023-05-01T09:29:15.814Z,35.79
2023-05-01T09:31:46.445Z,35.65
2023-05-01T09:34:16.755Z,35.62
2023-05-01T09:36:49.649Z,35.66
2023-05-01T09:39:27.828Z,35.59
2023-05-01T09:41:58.358Z,35.56
2023-05-01T09:44:28.888Z,35.54
2023-05-01T09:46:59.417Z,35.53
2023-05-01T09:49:48.624Z,35.48
2023-05-01T09:52:21.086Z,35.62
2023-05-01T09:54:53.182Z,35.55
2023-05-01T09:57:38.791Z,35.68
2023-05-01T10:00:11.087Z,35.43
2023-05-01T10:02:42.882Z,35.61
2023-05-01T10:05:14.491Z,35.52
2023-05-01T10:08:00.848Z,35.35
2023-05-01T10:10:32.954Z,35.57
2023-05-01T10:13:17.442Z,35.59
2023-05-01T10:15:49.013Z,35.58
2023-05-01T10:18:22.171Z,35.46
2023-05-01T10:20:52.855Z,35.33
2023-05-01T10:23:23.206Z,35.57
2023-05-01T10:25:55.613Z,35.48
2023-05-01T10:28:29.038Z,35.65
2023-05-01T10:31:00.632Z,35.60
2023-05-01T10:33:32.245Z,35.34
2023-05-01T10:36:04.398Z,35.34
2023-05-01T10:38:37.068Z,35.26
2023-05-01T10:41:09.756Z,35.68
2023-05-01T10:43:40.344Z,35.05
2023-05-01T10:46:40.352Z,35.45
2023-05-01T10:49:10.921Z,35.42
2023-05-01T10:52:02.195Z,35.28
2023-05-01T10:54:33.470Z,35.58
2023-05-01T10:57:06.037Z,35.46
2023-05-01T11:00:15.794Z,35.52
2023-05-01T11:02:46.102Z,35.71
2023-05-01T11:05:18.434Z,35.61
2023-05-01T11:08:33.356Z,35.38
2023-05-01T11:11:54.249Z,35.46
2023-05-01T11:14:26.662Z,35.29
2023-05-01T11:16:57.250Z,35.42
2023-05-01T11:19:53.018Z,35.28
2023-05-01T11:22:23.974Z,35.32
2023-05-01T11:24:54.669Z,35.63
2023-05-01T11:27:26.092Z,35.49
2023-05-01T11:30:01.836Z,35.19
2023-05-01T11:32:32.721Z,35.22
2023-05-01T11:35:02.739Z,35.16
2023-05-01T11:37:44.897Z,35.53
2023-05-01T11:40:26.966Z,35.26
2023-05-01T11:43:05.497Z,35.32
2023-05-01T11:45:39.466Z,35.24
2023-05-01T11:48:18.748Z,35.33
2023-05-01T11:50:49.082Z,35.60
2023-05-01T11:53:19.510Z,35.54
2023-05-01T11:55:49.923Z,35.53
2023-05-01T11:58:20.357Z,35.55
2023-05-01T12:00:53.615Z,35.62
2023-05-01T12:03:24.471Z,35.18
2023-05-01T12:05:55.668Z,35.21
2023-05-01T12:08:27.193Z,35.40
2023-05-01T12:10:59.614Z,35.42
2023-05-01T12:13:30.046Z,35.11
2023-05-01T12:16:30.815Z,35.51
2023-05-01T12:19:01.735Z,35.48
2023-05-01T12:21:32.594Z,35.13
2023-05-01T12:24:11.884Z,35.22
2023-05-01T12:26:42.202Z,35.24
2023-05-01T12:29:13.313Z,35.46
2023-05-01T12:31:51.588Z,35.20
2023-05-01T12:34:34.034Z,35.47
2023-05-01T12:37:05.334Z,35.26
2023-05-01T12:39:43.202Z,35.24
2023-05-01T12:42:18.987Z,35.18
2023-05-01T12:44:49.538Z,35.29
2023-05-01T12:47:21.514Z,35.21
2023-05-01T12:49:52.029Z,35.51
2023-05-01T12:52:29.946Z,35.41
2023-05-01T12:55:06.876Z,35.44
2023-05-01T12:57:37.332Z,35.24
2023-05-01T13:00:10.078Z,35.23
2023-05-01T13:02:42.743Z,35.31
2023-05-01T13:05:14.432Z,35.15
2023-05-01T13:07:52.072Z,35.28
2023-05-01T13:10:34.116Z,35.38
2023-05-01T13:13:05.422Z,35.33
2023-05-01T13:15:35.781Z,35.37
2023-05-01T13:18:11.594Z,35.56
2023-05-01T13:20:42.643Z,35.59
2023-05-01T13:23:15.661Z,35.27
2023-05-01T13:25:46.844Z,35.15
2023-05-01T13:28:22.414Z,35.53
2023-05-01T13:30:52.897Z,35.36
2023-05-01T13:33:25.013Z,35.49
2023-05-01T13:35:55.434Z,35.49
2023-05-01T13:38:25.972Z,35.47
2023-05-01T13:40:56.188Z,35.54
2023-05-01T13:43:27.265Z,35.63
2023-05-01T13:46:00.787Z,35.36
2023-05-01T13:48:34.362Z,35.22
2023-05-01T13:51:04.685Z,35.38
2023-05-01T13:53:35.268Z,35.45
2023-05-01T13:56:07.982Z,35.37
2023-05-01T13:58:39.229Z,35.31
2023-05-01T14:01:17.733Z,35.22
2023-05-01T14:03:52.218Z,35.41
2023-05-01T14:06:24.711Z,35.11
2023-05-01T14:08:55.370Z,35.79
2023-05-01T14:11:25.471Z,35.38
2023-05-01T14:14:04.218Z,35.61
2023-05-01T14:16:34.922Z,35.14
2023-05-01T14:19:07.531Z,35.47
2023-05-01T14:21:44.510Z,35.47
2023-05-01T14:24:20.131Z,35.39
2023-05-01T14:26:51.614Z,35.53
2023-05-01T14:29:29.860Z,35.39
2023-05-01T14:32:06.422Z,35.66
2023-05-01T14:34:38.584Z,35.49
2023-05-01T14:37:09.941Z,35.84
2023-05-01T14:39:41.997Z,35.34
2023-05-01T14:42:12.939Z,35.64
2023-05-01T14:44:44.880Z,35.44
2023-05-01T14:47:23.413Z,35.23
2023-05-01T14:49:57.165Z,35.53
2023-05-01T14:52:27.200Z,35.35
2023-05-01T14:54:58.164Z,35.50
2023-05-01T14:57:29.280Z,35.40
2023-05-01T14:59:59.449Z,35.60
2023-05-01T15:02:30.688Z,35.46
2023-05-01T15:05:04.050Z,35.75
2023-05-01T15:07:35.132Z,35.62
2023-05-01T15:10:05.288Z,35.55
2023-05-01T15:12:35.106Z,35.37
2023-05-01T15:15:05.399Z,35.48
2023-05-01T15:17:35.827Z,35.63
2023-05-01T15:20:10.320Z,35.44
2023-05-01T15:22:41.152Z,35.72
2023-05-01T15:25:13.030Z,35.58
2023-05-01T15:27:45.254Z,35.45
2023-05-01T15:30:16.940Z,35.57
2023-05-01T15:32:47.672Z,35.60
2023-05-01T15:35:19.929Z,35.68
2023-05-01T15:37:50.925Z,35.60
2023-05-01T15:40:21.613Z,35.63
2023-05-01T15:42:52.217Z,35.62
2023-05-01T15:45:24.188Z,35.49
2023-05-01T15:47:55.001Z,35.78
2023-05-01T15:50:27.877Z,35.88
2023-05-01T15:52:58.291Z,35.74
2023-05-01T15:55:28.354Z,35.64
2023-05-01T15:57:58.669Z,35.78
2023-05-01T16:00:28.541Z,35.74
2023-05-01T16:02:58.688Z,35.79
2023-05-01T16:05:30.610Z,35.97
2023-05-01T16:08:03.868Z,35.31
2023-05-01T16:10:37.494Z,35.68
2023-05-01T16:13:08.242Z,35.79
2023-05-01T16:15:40.575Z,35.90
2023-05-01T16:18:16.992Z,35.92
2023-05-01T16:20:49.259Z,36.00
2023-05-01T16:23:19.642Z,35.93
2023-05-01T16:25:50.434Z,35.88
2023-05-01T16:28:20.985Z,36.03
2023-05-01T16:30:51.683Z,36.01
2023-05-01T16:33:23.821Z,35.89
2023-05-01T16:35:55.987Z,35.78
2023-05-01T16:38:27.387Z,35.85
2023-05-01T16:40:57.418Z,35.92
2023-05-01T16:43:27.768Z,36.06
2023-05-01T16:46:00.439Z,35.84
2023-05-01T16:48:32.208Z,35.82
2023-05-01T16:51:10.076Z,36.00
2023-05-01T16:53:41.584Z,35.77
2023-05-01T16:56:12.494Z,35.93
2023-05-01T16:58:45.890Z,36.09
2023-05-01T17:01:18.505Z,35.94
2023-05-01T17:03:49.422Z,35.92
2023-05-01T17:06:21.807Z,35.99
2023-05-01T17:08:52.028Z,35.90
2023-05-01T17:11:23.111Z,36.00
2023-05-01T17:13:54.894Z,35.90
2023-05-01T17:16:24.933Z,36.06
2023-05-01T17:18:55.715Z,36.06
2023-05-01T17:21:28.993Z,36.00
2023-05-01T17:23:59.834Z,35.94
2023-05-01T17:26:30.410Z,36.17
2023-05-01T17:29:02.836Z,36.10
2023-05-01T17:31:33.513Z,36.13
2023-05-01T17:34:05.670Z,36.11
2023-05-01T17:36:39.824Z,36.05
2023-05-01T17:39:10.558Z,36.13
2023-05-01T17:41:42.191Z,36.13
2023-05-01T17:44:12.580Z,36.31
2023-05-01T17:46:43.107Z,36.06
2023-05-01T17:49:17.826Z,36.15
2023-05-01T17:51:51.938Z,36.13
2023-05-01T17:54:24.325Z,36.08
2023-05-01T17:56:57.690Z,36.36
2023-05-01T17:59:31.676Z,36.19
2023-05-01T18:02:05.296Z,36.17
2023-05-01T18:04:36.797Z,36.14
2023-05-01T18:07:11.337Z,36.23
2023-05-01T18:09:45.527Z,36.32
2023-05-01T18:12:16.076Z,36.31
2023-05-01T18:14:45.837Z,36.24
2023-05-01T18:17:16.545Z,36.18
2023-05-01T18:19:47.045Z,36.27
2023-05-01T18:22:19.562Z,36.31
2023-05-01T18:24:49.865Z,36.33
2023-05-01T18:27:20.117Z,36.63
2023-05-01T18:29:50.299Z,36.26
2023-05-01T18:32:20.280Z,36.34
2023-05-01T18:34:51.902Z,36.35
2023-05-01T18:37:26.239Z,36.28
2023-05-01T18:39:56.486Z,36.33
2023-05-01T18:42:26.953Z,36.12
2023-05-01T18:44:57.489Z,36.30
2023-05-01T18:47:28.385Z,36.37
2023-05-01T18:49:58.902Z,36.34
2023-05-01T18:52:32.464Z,36.42
2023-05-01T18:55:03.371Z,36.38
2023-05-01T18:57:34.500Z,36.33
2023-05-01T19:00:04.348Z,36.48
2023-05-01T19:02:34.764Z,36.43
2023-05-01T19:05:05.076Z,36.46
2023-05-01T19:07:36.964Z,36.35
2023-05-01T19:10:08.301Z,36.75
2023-05-01T19:12:39.777Z,36.43
2023-05-01T19:15:11.388Z,36.50
2023-05-01T19:17:42.324Z,36.81
2023-05-01T19:20:13.314Z,36.61
2023-05-01T19:22:45.996Z,36.65
2023-05-01T19:25:16.278Z,36.73
2023-05-01T19:27:46.495Z,36.73
2023-05-01T19:30:16.744Z,36.64
2023-05-01T19:32:48.188Z,36.67
2023-05-01T19:35:18.662Z,36.68
2023-05-01T19:37:55.426Z,36.70
2023-05-01T19:40:25.922Z,36.93
2023-05-01T19:42:55.649Z,36.89
2023-05-01T19:45:25.890Z,36.85
2023-05-01T19:47:56.227Z,36.92
2023-05-01T19:50:26.762Z,36.84
2023-05-01T19:52:59.866Z,36.91
2023-05-01T19:55:30.126Z,36.96
2023-05-01T19:58:00.590Z,36.85
2023-05-01T20:00:31.675Z,36.97
2023-05-01T20:03:02.333Z,36.94
2023-05-01T20:05:32.918Z,37.12
2023-05-01T20:08:05.544Z,37.07
2023-05-01T20:10:36.411Z,37.00
2023-05-01T20:13:11.091Z,37.08
2023-05-01T20:15:41.820Z,37.22
2023-05-01T20:18:13.487Z,36.92
2023-05-01T20:20:43.741Z,37.24
2023-05-01T20:23:18.175Z,37.15
2023-05-01T20:25:49.354Z,37.19
2023-05-01T20:28:21.118Z,37.21
2023-05-01T20:30:52.061Z,37.34
2023-05-01T20:33:22.421Z,37.22
2023-05-01T20:35:53.695Z,37.52
2023-05-01T20:38:25.452Z,37.27
2023-05-01T20:40:55.566Z,37.51
2023-05-01T20:43:25.816Z,37.57
2023-05-01T20:45:56.036Z,37.55
2023-05-01T20:48:27.306Z,37.42
2023-05-01T20:50:57.527Z,37.39
2023-05-01T20:53:29.889Z,37.50
2023-05-01T20:56:00.445Z,37.55
2023-05-01T20:58:31.169Z,37.52
2023-05-01T21:01:02.265Z,37.62
2023-05-01T21:03:32.631Z,37.63
2023-05-01T21:06:03.571Z,37.51
2023-05-01T21:08:36.683Z,37.39
2023-05-01T21:11:07.794Z,37.61
2023-05-01T21:13:37.740Z,37.79
2023-05-01T21:16:15.993Z,37.69
2023-05-01T21:18:46.257Z,37.41
2023-05-01T21:21:18.008Z,37.68
2023-05-01T21:23:51.533Z,37.85
2023-05-01T21:26:21.695Z,37.58
2023-05-01T21:28:52.207Z,37.75
2023-05-01T21:31:23.051Z,37.75
2023-05-01T21:33:53.795Z,37.80
2023-05-01T21:36:23.988Z,37.82
2023-05-01T21:38:56.224Z,37.91
2023-05-01T21:41:26.594Z,37.81
2023-05-01T21:43:59.320Z,38.09
2023-05-01T21:46:29.630Z,37.82
2023-05-01T21:48:59.725Z,38.05
2023-05-01T21:51:30.305Z,37.82
2023-05-01T21:54:03.520Z,38.01
2023-05-01T21:56:35.239Z,38.03
2023-05-01T21:59:07.378Z,37.77
2023-05-01T22:01:39.680Z,38.10
2023-05-01T22:04:10.314Z,37.99
2023-05-01T22:06:40.490Z,38.10
2023-05-01T22:09:12.182Z,37.89
2023-05-01T22:11:41.748Z,37.87
2023-05-01T22:14:11.755Z,38.15
2023-05-01T22:16:42.095Z,37.83
2023-05-01T22:19:12.357Z,37.90
2023-05-01T22:21:42.931Z,37.93
2023-05-01T22:24:15.479Z,37.99
2023-05-01T22:26:46.010Z,37.85
2023-05-01T22:29:18.804Z,37.95
2023-05-01T22:31:48.712Z,38.03
2023-05-01T22:34:19.063Z,38.17
2023-05-01T22:36:49.328Z,37.87
2023-05-01T22:39:22.465Z,37.98
2023-05-01T22:41:52.866Z,38.09
2023-05-01T22:44:23.165Z,38.26
2023-05-01T22:46:53.123Z,38.15
2023-05-01T22:49:23.836Z,38.04
2023-05-01T22:51:54.089Z,38.17
2023-05-01T22:54:25.872Z,37.97
2023-05-01T22:56:56.855Z,37.95
2023-05-01T22:59:26.890Z,37.90
2023-05-01T23:01:57.045Z,38.29
2023-05-01T23:04:26.803Z,38.04
2023-05-01T23:06:57.120Z,38.17
2023-05-01T23:09:29.149Z,38.20
2023-05-01T23:11:59.417Z,37.99
2023-05-01T23:14:29.820Z,38.31
2023-05-01T23:17:00.262Z,38.16
2023-05-01T23:19:30.612Z,38.33
2023-05-01T23:22:11.299Z,38.28
2023-05-01T23:24:48.704Z,38.42
2023-05-01T23:27:19.942Z,38.20
2023-05-01T23:29:57.634Z,38.28
2023-05-01T23:32:30.886Z,37.84
2023-05-01T23:35:07.752Z,38.41
2023-05-01T23:37:38.110Z,38.43
2023-05-01T23:40:12.228Z,38.57
2023-05-01T23:42:43.198Z,38.21
2023-05-01T23:45:13.557Z,38.48
2023-05-01T23:47:43.405Z,38.35
2023-05-01T23:50:14.052Z,38.29
2023-05-01T23:52:43.937Z,38.45
2023-05-01T23:55:16.023Z,38.50
2023-05-01T23:57:46.728Z,38.76
